Aérodrome :
LOGIN :

S'inscrire | Disclaimer

   EN    FR    IT 

 










Légende :    VFR   VFR Marginal   IFR   IFR Intensif   IFR Très Intensif
Visi : 
Plafond : 
>= 8 km
>= 3000ft
5 à 8 km
1000 à 3000 ft
1500m à 5 km
500 à 1000 ft
800 à 1500m
200 à 500 ft
< 800m
< 200 ft
Symboles :   Orages  Brouillard  Fortes neiges  Fortes précipitations  Vent > 20 kt
SIGMETs :   Divers  Orages  Givrage  Turbulence  Onde Orograph.  Cendres Volcan.






- Altitude de l'aérodrome : 171 ft
- Code IATA : EGC


LFBE - Bergerac

DERNIER METAR :
  • 242130Z AUTO 25005KT 9999 OVC016 08/06 Q1022 TEMPO BKN009

METARs EXPIRÉS :
  • 242100Z AUTO 26005KT 9000 OVC014 08/07 Q1022 TEMPO BKN009
  • 242030Z AUTO 29004KT 260V320 6000 OVC011 08/07 Q1022 TEMPO BKN009
  • 242000Z AUTO 29012KT 6000 FEW010 SCT020 08/07 Q1022 TEMPO BKN009
  • 241930Z AUTO 24003KT 6000 SCT023 05/04 Q1022 TEMPO BKN009
  • 241900Z AUTO 24003KT 8000 2400 NSC 06/04 Q1022 TEMPO BKN009

TAF TAF LFBE
Valide du 24 à 18h jusqu'au 25 à 18h UTC


241700Z 2418/2518 19005KT CAVOK
BECMG 2418/2420 26010KT BKN012
TEMPO 2420/2424 BKN009
BECMG 2506/2508 4000 -RA BKN010
TEMPO 2509/2512 2000 RA OVC004
BECMG 2512/2514 9999 NSW BKN020
PROB40
TEMPO 2514/2518 27015G25KT 4000 -SHRA BKN015TCU



MET'MAP, la Météo Aéronautique d'un coup d'oeil ! - Copyright ORBIFLY Décembre 2007 - Disclaimer

ORBIFLY MET'MAP TEAM :

Programmation & Développement : Alexandra Zaïnal
Sur une idée originale de : Baudouin d'Aumeries
Assistance à la programmation : Marc-Olivier Méhu
Soutien technique & logistique : Manuel Goepfert

Contact : metmap@orbifly.com




SOURCES & CREDITS :

   NOAA